sensor_id;sensor_type;location;lat;lon;timestamp;P1;durP1;ratioP1;P2;durP2;ratioP2
72235;SDS011;60146;52.498;13.462;2024-03-23T00:52:39;10.37;;;1.97;;
72235;SDS011;60146;52.498;13.462;2024-03-23T00:55:05;12.90;;;2.50;;
72235;SDS011;60146;52.498;13.462;2024-03-23T00:57:30;8.63;;;2.20;;
72235;SDS011;60146;52.498;13.462;2024-03-23T00:59:56;13.17;;;2.50;;
72235;SDS011;60146;52.498;13.462;2024-03-23T01:02:21;10.20;;;2.17;;
72235;SDS011;60146;52.498;13.462;2024-03-23T01:04:47;9.97;;;1.60;;
72235;SDS011;60146;52.498;13.462;2024-03-23T01:07:12;16.20;;;2.00;;
72235;SDS011;60146;52.498;13.462;2024-03-23T01:09:37;10.20;;;2.17;;
72235;SDS011;60146;52.498;13.462;2024-03-23T01:12:03;10.53;;;2.33;;
72235;SDS011;60146;52.498;13.462;2024-03-23T01:14:29;12.83;;;2.03;;
72235;SDS011;60146;52.498;13.462;2024-03-23T01:16:55;11.77;;;2.03;;
72235;SDS011;60146;52.498;13.462;2024-03-23T01:19:20;15.63;;;2.60;;
72235;SDS011;60146;52.498;13.462;2024-03-23T01:21:45;16.60;;;2.30;;
72235;SDS011;60146;52.498;13.462;2024-03-23T01:24:11;11.10;;;2.03;;
72235;SDS011;60146;52.498;13.462;2024-03-23T01:26:36;6.17;;;1.83;;
72235;SDS011;60146;52.498;13.462;2024-03-23T01:29:02;15.17;;;2.00;;
72235;SDS011;60146;52.498;13.462;2024-03-23T01:31:27;14.40;;;2.10;;
72235;SDS011;60146;52.498;13.462;2024-03-23T01:33:52;11.17;;;2.03;;
72235;SDS011;60146;52.498;13.462;2024-03-23T01:36:18;14.87;;;2.00;;
72235;SDS011;60146;52.498;13.462;2024-03-23T01:38:43;10.83;;;1.83;;
72235;SDS011;60146;52.498;13.462;2024-03-23T01:41:08;11.60;;;2.17;;
72235;SDS011;60146;52.498;13.462;2024-03-23T01:43:34;13.10;;;1.87;;
72235;SDS011;60146;52.498;13.462;2024-03-23T01:45:59;10.67;;;2.17;;
72235;SDS011;60146;52.498;13.462;2024-03-23T01:48:25;9.17;;;2.37;;
72235;SDS011;60146;52.498;13.462;2024-03-23T01:50:51;16.27;;;2.77;;
72235;SDS011;60146;52.498;13.462;2024-03-23T01:53:16;12.37;;;1.70;;
72235;SDS011;60146;52.498;13.462;2024-03-23T01:58:12;14.23;;;2.20;;
72235;SDS011;60146;52.498;13.462;2024-03-23T02:00:37;14.13;;;2.43;;
72235;SDS011;60146;52.498;13.462;2024-03-23T02:03:02;11.03;;;2.20;;
72235;SDS011;60146;52.498;13.462;2024-03-23T02:05:47;11.27;;;2.00;;
72235;SDS011;60146;52.498;13.462;2024-03-23T02:08:12;11.93;;;2.10;;
72235;SDS011;60146;52.498;13.462;2024-03-23T02:10:37;8.23;;;2.20;;
72235;SDS011;60146;52.498;13.462;2024-03-23T02:13:03;8.57;;;1.87;;
72235;SDS011;60146;52.498;13.462;2024-03-23T02:15:28;16.93;;;2.57;;
72235;SDS011;60146;52.498;13.462;2024-03-23T02:17:53;6.73;;;1.83;;
72235;SDS011;60146;52.498;13.462;2024-03-23T02:20:19;11.73;;;2.27;;
72235;SDS011;60146;52.498;13.462;2024-03-23T02:22:44;11.20;;;2.00;;
72235;SDS011;60146;52.498;13.462;2024-03-23T02:25:09;7.80;;;1.87;;
72235;SDS011;60146;52.498;13.462;2024-03-23T02:27:35;15.30;;;2.57;;
72235;SDS011;60146;52.498;13.462;2024-03-23T02:30:01;9.47;;;2.27;;
72235;SDS011;60146;52.498;13.462;2024-03-23T02:32:26;12.80;;;2.33;;
72235;SDS011;60146;52.498;13.462;2024-03-23T02:34:51;8.97;;;2.00;;
72235;SDS011;60146;52.498;13.462;2024-03-23T02:37:17;12.23;;;2.23;;
72235;SDS011;60146;52.498;13.462;2024-03-23T02:39:42;12.20;;;2.07;;
72235;SDS011;60146;52.498;13.462;2024-03-23T02:42:07;16.13;;;3.23;;
72235;SDS011;60146;52.498;13.462;2024-03-23T02:44:33;9.13;;;2.47;;
72235;SDS011;60146;52.498;13.462;2024-03-23T02:46:58;17.77;;;2.43;;
72235;SDS011;60146;52.498;13.462;2024-03-23T02:49:23;12.80;;;2.80;;
72235;SDS011;60146;52.498;13.462;2024-03-23T02:51:49;22.37;;;3.20;;
72235;SDS011;60146;52.498;13.462;2024-03-23T02:54:14;10.63;;;2.17;;
72235;SDS011;60146;52.498;13.462;2024-03-23T02:56:39;9.17;;;2.17;;
72235;SDS011;60146;52.498;13.462;2024-03-23T02:59:05;13.77;;;2.43;;
72235;SDS011;60146;52.498;13.462;2024-03-23T03:01:30;10.77;;;2.70;;
72235;SDS011;60146;52.498;13.462;2024-03-23T03:03:55;8.93;;;2.47;;
72235;SDS011;60146;52.498;13.462;2024-03-23T03:06:24;11.73;;;3.03;;
72235;SDS011;60146;52.498;13.462;2024-03-23T03:08:53;16.40;;;2.70;;
72235;SDS011;60146;52.498;13.462;2024-03-23T03:11:19;10.63;;;2.20;;
72235;SDS011;60146;52.498;13.462;2024-03-23T03:13:44;14.93;;;2.20;;
72235;SDS011;60146;52.498;13.462;2024-03-23T03:16:10;12.23;;;2.33;;
72235;SDS011;60146;52.498;13.462;2024-03-23T03:18:35;14.70;;;2.30;;
72235;SDS011;60146;52.498;13.462;2024-03-23T03:21:00;11.10;;;2.07;;
72235;SDS011;60146;52.498;13.462;2024-03-23T03:23:26;16.40;;;2.40;;
72235;SDS011;60146;52.498;13.462;2024-03-23T03:25:52;17.30;;;2.77;;
72235;SDS011;60146;52.498;13.462;2024-03-23T03:28:17;15.10;;;2.60;;
72235;SDS011;60146;52.498;13.462;2024-03-23T03:30:42;14.20;;;2.90;;
72235;SDS011;60146;52.498;13.462;2024-03-23T03:33:07;14.80;;;2.87;;
72235;SDS011;60146;52.498;13.462;2024-03-23T03:35:33;11.67;;;2.50;;
72235;SDS011;60146;52.498;13.462;2024-03-23T03:37:58;13.40;;;2.97;;
72235;SDS011;60146;52.498;13.462;2024-03-23T03:40:23;11.73;;;3.33;;
72235;SDS011;60146;52.498;13.462;2024-03-23T03:42:50;14.97;;;3.20;;
72235;SDS011;60146;52.498;13.462;2024-03-23T03:45:15;9.70;;;2.50;;
72235;SDS011;60146;52.498;13.462;2024-03-23T03:47:40;10.20;;;2.67;;
72235;SDS011;60146;52.498;13.462;2024-03-23T03:50:06;10.23;;;2.60;;
72235;SDS011;60146;52.498;13.462;2024-03-23T03:52:31;13.50;;;2.77;;
72235;SDS011;60146;52.498;13.462;2024-03-23T03:55:01;9.33;;;2.50;;
72235;SDS011;60146;52.498;13.462;2024-03-23T03:57:27;12.33;;;2.70;;
72235;SDS011;60146;52.498;13.462;2024-03-23T03:59:53;14.80;;;2.80;;
72235;SDS011;60146;52.498;13.462;2024-03-23T04:02:19;11.17;;;2.33;;
72235;SDS011;60146;52.498;13.462;2024-03-23T04:04:44;10.07;;;2.53;;
72235;SDS011;60146;52.498;13.462;2024-03-23T04:07:09;10.93;;;2.40;;
72235;SDS011;60146;52.498;13.462;2024-03-23T04:09:35;10.17;;;2.40;;
72235;SDS011;60146;52.498;13.462;2024-03-23T04:12:00;11.93;;;2.40;;
72235;SDS011;60146;52.498;13.462;2024-03-23T04:14:26;11.80;;;1.80;;
72235;SDS011;60146;52.498;13.462;2024-03-23T04:16:51;13.40;;;1.80;;
72235;SDS011;60146;52.498;13.462;2024-03-23T04:19:16;9.53;;;1.97;;
72235;SDS011;60146;52.498;13.462;2024-03-23T04:21:42;11.47;;;2.40;;
72235;SDS011;60146;52.498;13.462;2024-03-23T04:24:07;9.50;;;1.33;;
72235;SDS011;60146;52.498;13.462;2024-03-23T04:26:45;6.43;;;1.60;;
72235;SDS011;60146;52.498;13.462;2024-03-23T04:29:11;4.17;;;1.33;;
72235;SDS011;60146;52.498;13.462;2024-03-23T04:31:39;8.93;;;1.97;;
72235;SDS011;60146;52.498;13.462;2024-03-23T04:34:04;7.07;;;1.30;;
72235;SDS011;60146;52.498;13.462;2024-03-23T04:36:30;7.20;;;1.30;;
72235;SDS011;60146;52.498;13.462;2024-03-23T04:38:56;5.40;;;1.40;;
72235;SDS011;60146;52.498;13.462;2024-03-23T04:41:22;7.67;;;1.27;;
72235;SDS011;60146;52.498;13.462;2024-03-23T04:43:48;6.27;;;1.30;;
72235;SDS011;60146;52.498;13.462;2024-03-23T04:46:13;5.87;;;1.13;;
72235;SDS011;60146;52.498;13.462;2024-03-23T04:48:38;9.27;;;1.40;;
72235;SDS011;60146;52.498;13.462;2024-03-23T04:51:04;8.03;;;1.50;;
72235;SDS011;60146;52.498;13.462;2024-03-23T04:53:29;5.83;;;1.40;;
72235;SDS011;60146;52.498;13.462;2024-03-23T04:55:55;5.67;;;1.20;;
72235;SDS011;60146;52.498;13.462;2024-03-23T04:58:22;6.10;;;1.90;;
72235;SDS011;60146;52.498;13.462;2024-03-23T05:00:52;5.10;;;1.10;;
72235;SDS011;60146;52.498;13.462;2024-03-23T05:03:18;4.38;;;1.00;;
72235;SDS011;60146;52.498;13.462;2024-03-23T05:05:46;6.57;;;1.30;;
72235;SDS011;60146;52.498;13.462;2024-03-23T05:08:11;6.20;;;1.30;;
72235;SDS011;60146;52.498;13.462;2024-03-23T05:10:37;4.37;;;1.30;;
72235;SDS011;60146;52.498;13.462;2024-03-23T05:13:03;6.07;;;1.10;;
72235;SDS011;60146;52.498;13.462;2024-03-23T05:15:28;4.00;;;1.17;;
72235;SDS011;60146;52.498;13.462;2024-03-23T05:17:54;7.03;;;1.47;;
72235;SDS011;60146;52.498;13.462;2024-03-23T05:20:20;7.83;;;1.60;;
72235;SDS011;60146;52.498;13.462;2024-03-23T05:22:45;5.50;;;1.10;;
72235;SDS011;60146;52.498;13.462;2024-03-23T05:25:11;5.60;;;1.47;;
72235;SDS011;60146;52.498;13.462;2024-03-23T05:27:37;6.57;;;1.37;;
72235;SDS011;60146;52.498;13.462;2024-03-23T05:30:02;6.93;;;1.33;;
72235;SDS011;60146;52.498;13.462;2024-03-23T05:32:28;7.00;;;1.53;;
72235;SDS011;60146;52.498;13.462;2024-03-23T05:34:54;6.53;;;1.50;;
72235;SDS011;60146;52.498;13.462;2024-03-23T05:37:24;5.17;;;1.80;;
72235;SDS011;60146;52.498;13.462;2024-03-23T05:39:50;7.03;;;1.70;;
72235;SDS011;60146;52.498;13.462;2024-03-23T05:42:18;6.23;;;1.40;;
72235;SDS011;60146;52.498;13.462;2024-03-23T05:44:44;6.13;;;1.60;;
72235;SDS011;60146;52.498;13.462;2024-03-23T05:47:10;3.50;;;1.10;;
72235;SDS011;60146;52.498;13.462;2024-03-23T05:49:37;8.57;;;1.70;;
72235;SDS011;60146;52.498;13.462;2024-03-23T05:52:02;3.63;;;1.37;;
72235;SDS011;60146;52.498;13.462;2024-03-23T05:54:29;4.90;;;2.30;;
72235;SDS011;60146;52.498;13.462;2024-03-23T05:56:54;5.07;;;1.37;;
72235;SDS011;60146;52.498;13.462;2024-03-23T05:59:20;4.90;;;1.60;;
72235;SDS011;60146;52.498;13.462;2024-03-23T06:01:46;5.43;;;1.67;;
72235;SDS011;60146;52.498;13.462;2024-03-23T06:04:12;10.93;;;2.17;;
72235;SDS011;60146;52.498;13.462;2024-03-23T06:06:38;10.33;;;2.10;;
72235;SDS011;60146;52.498;13.462;2024-03-23T06:09:04;6.83;;;1.77;;
72235;SDS011;60146;52.498;13.462;2024-03-23T06:11:29;7.53;;;1.60;;
72235;SDS011;60146;52.498;13.462;2024-03-23T06:13:55;5.10;;;1.63;;
72235;SDS011;60146;52.498;13.462;2024-03-23T06:16:21;5.23;;;1.80;;
72235;SDS011;60146;52.498;13.462;2024-03-23T06:18:48;6.67;;;1.83;;
72235;SDS011;60146;52.498;13.462;2024-03-23T06:21:14;7.33;;;1.93;;
72235;SDS011;60146;52.498;13.462;2024-03-23T06:23:40;9.77;;;2.13;;
72235;SDS011;60146;52.498;13.462;2024-03-23T06:26:06;4.97;;;1.77;;
72235;SDS011;60146;52.498;13.462;2024-03-23T06:28:31;9.10;;;2.67;;
72235;SDS011;60146;52.498;13.462;2024-03-23T06:30:57;5.87;;;1.90;;
72235;SDS011;60146;52.498;13.462;2024-03-23T06:33:22;5.07;;;1.90;;
72235;SDS011;60146;52.498;13.462;2024-03-23T06:35:52;6.97;;;2.13;;
72235;SDS011;60146;52.498;13.462;2024-03-23T06:38:17;14.17;;;2.53;;
72235;SDS011;60146;52.498;13.462;2024-03-23T06:40:43;11.20;;;2.43;;
72235;SDS011;60146;52.498;13.462;2024-03-23T06:43:12;8.17;;;2.07;;
72235;SDS011;60146;52.498;13.462;2024-03-23T06:45:38;7.70;;;1.63;;
72235;SDS011;60146;52.498;13.462;2024-03-23T06:48:04;7.50;;;1.77;;
72235;SDS011;60146;52.498;13.462;2024-03-23T06:50:32;8.60;;;2.23;;
72235;SDS011;60146;52.498;13.462;2024-03-23T06:52:58;6.67;;;2.47;;
72235;SDS011;60146;52.498;13.462;2024-03-23T06:55:24;5.90;;;2.23;;
72235;SDS011;60146;52.498;13.462;2024-03-23T06:57:51;7.60;;;1.80;;
72235;SDS011;60146;52.498;13.462;2024-03-23T07:00:17;9.07;;;1.67;;
72235;SDS011;60146;52.498;13.462;2024-03-23T07:02:42;7.43;;;1.67;;
72235;SDS011;60146;52.498;13.462;2024-03-23T07:05:09;11.03;;;2.23;;
72235;SDS011;60146;52.498;13.462;2024-03-23T07:07:35;6.43;;;1.63;;
72235;SDS011;60146;52.498;13.462;2024-03-23T07:10:01;6.63;;;1.20;;
72235;SDS011;60146;52.498;13.462;2024-03-23T07:12:26;3.77;;;1.60;;
72235;SDS011;60146;52.498;13.462;2024-03-23T07:14:52;8.57;;;1.40;;
72235;SDS011;60146;52.498;13.462;2024-03-23T07:17:17;8.80;;;1.57;;
72235;SDS011;60146;52.498;13.462;2024-03-23T07:19:43;3.73;;;1.33;;
72235;SDS011;60146;52.498;13.462;2024-03-23T07:22:08;7.10;;;1.40;;
72235;SDS011;60146;52.498;13.462;2024-03-23T07:24:35;4.17;;;1.30;;
72235;SDS011;60146;52.498;13.462;2024-03-23T07:27:00;5.13;;;1.40;;
72235;SDS011;60146;52.498;13.462;2024-03-23T07:29:27;3.20;;;1.03;;
72235;SDS011;60146;52.498;13.462;2024-03-23T07:31:52;7.27;;;1.80;;
72235;SDS011;60146;52.498;13.462;2024-03-23T07:34:18;5.10;;;1.63;;
72235;SDS011;60146;52.498;13.462;2024-03-23T07:36:43;4.77;;;1.67;;
72235;SDS011;60146;52.498;13.462;2024-03-23T07:39:08;6.03;;;1.87;;
72235;SDS011;60146;52.498;13.462;2024-03-23T07:41:34;9.17;;;2.17;;
72235;SDS011;60146;52.498;13.462;2024-03-23T07:44:00;4.70;;;1.37;;
72235;SDS011;60146;52.498;13.462;2024-03-23T07:46:25;6.37;;;1.67;;
72235;SDS011;60146;52.498;13.462;2024-03-23T07:48:51;8.83;;;1.70;;
72235;SDS011;60146;52.498;13.462;2024-03-23T07:51:23;8.20;;;1.70;;
72235;SDS011;60146;52.498;13.462;2024-03-23T07:53:48;4.20;;;1.60;;
72235;SDS011;60146;52.498;13.462;2024-03-23T07:56:14;6.77;;;1.50;;
72235;SDS011;60146;52.498;13.462;2024-03-23T07:58:40;8.63;;;2.00;;
72235;SDS011;60146;52.498;13.462;2024-03-23T08:01:11;4.73;;;1.47;;
72235;SDS011;60146;52.498;13.462;2024-03-23T08:03:38;5.43;;;1.70;;
72235;SDS011;60146;52.498;13.462;2024-03-23T08:08:40;8.77;;;1.33;;
72235;SDS011;60146;52.498;13.462;2024-03-23T08:11:07;4.47;;;1.10;;
72235;SDS011;60146;52.498;13.462;2024-03-23T08:13:33;4.00;;;1.20;;
72235;SDS011;60146;52.498;13.462;2024-03-23T08:15:59;5.97;;;1.53;;
72235;SDS011;60146;52.498;13.462;2024-03-23T08:18:25;3.00;;;1.20;;
72235;SDS011;60146;52.498;13.462;2024-03-23T08:23:33;4.37;;;1.20;;
72235;SDS011;60146;52.498;13.462;2024-03-23T08:26:01;3.47;;;1.50;;
72235;SDS011;60146;52.498;13.462;2024-03-23T08:28:27;6.27;;;1.50;;
72235;SDS011;60146;52.498;13.462;2024-03-23T08:30:53;5.80;;;1.20;;
72235;SDS011;60146;52.498;13.462;2024-03-23T08:33:19;4.87;;;1.30;;
72235;SDS011;60146;52.498;13.462;2024-03-23T08:38:21;5.00;;;1.33;;
72235;SDS011;60146;52.498;13.462;2024-03-23T08:40:46;4.93;;;1.03;;
72235;SDS011;60146;52.498;13.462;2024-03-23T08:43:12;2.43;;;1.17;;
72235;SDS011;60146;52.498;13.462;2024-03-23T08:45:37;6.07;;;1.27;;
72235;SDS011;60146;52.498;13.462;2024-03-23T08:48:02;4.93;;;1.43;;
72235;SDS011;60146;52.498;13.462;2024-03-23T08:50:28;4.20;;;1.20;;
72235;SDS011;60146;52.498;13.462;2024-03-23T08:52:53;4.40;;;1.30;;
72235;SDS011;60146;52.498;13.462;2024-03-23T08:55:19;9.53;;;1.50;;
72235;SDS011;60146;52.498;13.462;2024-03-23T08:57:44;5.83;;;1.37;;
72235;SDS011;60146;52.498;13.462;2024-03-23T09:00:09;6.33;;;1.20;;
72235;SDS011;60146;52.498;13.462;2024-03-23T09:02:36;9.07;;;1.77;;
72235;SDS011;60146;52.498;13.462;2024-03-23T09:05:02;5.07;;;1.20;;
72235;SDS011;60146;52.498;13.462;2024-03-23T09:07:32;8.17;;;1.40;;
72235;SDS011;60146;52.498;13.462;2024-03-23T09:09:57;1.13;;;0.93;;
72235;SDS011;60146;52.498;13.462;2024-03-23T09:12:23;7.23;;;1.33;;
72235;SDS011;60146;52.498;13.462;2024-03-23T09:14:49;6.87;;;1.10;;
72235;SDS011;60146;52.498;13.462;2024-03-23T09:17:18;4.95;;;1.05;;
72235;SDS011;60146;52.498;13.462;2024-03-23T09:19:43;7.47;;;1.37;;
72235;SDS011;60146;52.498;13.462;2024-03-23T09:22:09;4.13;;;1.20;;
72235;SDS011;60146;52.498;13.462;2024-03-23T09:24:34;5.17;;;1.30;;
72235;SDS011;60146;52.498;13.462;2024-03-23T09:26:59;5.43;;;1.20;;
72235;SDS011;60146;52.498;13.462;2024-03-23T09:29:25;3.33;;;1.00;;
72235;SDS011;60146;52.498;13.462;2024-03-23T09:31:50;5.53;;;1.27;;
72235;SDS011;60146;52.498;13.462;2024-03-23T09:34:15;2.60;;;1.10;;
72235;SDS011;60146;52.498;13.462;2024-03-23T09:36:41;5.60;;;0.77;;
72235;SDS011;60146;52.498;13.462;2024-03-23T09:39:06;3.33;;;0.80;;
72235;SDS011;60146;52.498;13.462;2024-03-23T09:41:34;2.50;;;0.77;;
72235;SDS011;60146;52.498;13.462;2024-03-23T09:44:00;4.57;;;0.97;;
72235;SDS011;60146;52.498;13.462;2024-03-23T09:46:26;7.10;;;1.03;;
72235;SDS011;60146;52.498;13.462;2024-03-23T09:48:52;5.33;;;0.90;;
72235;SDS011;60146;52.498;13.462;2024-03-23T09:51:18;2.40;;;1.00;;
72235;SDS011;60146;52.498;13.462;2024-03-23T09:53:44;2.67;;;1.10;;
72235;SDS011;60146;52.498;13.462;2024-03-23T09:56:09;4.00;;;1.27;;
72235;SDS011;60146;52.498;13.462;2024-03-23T09:58:34;5.00;;;1.17;;
72235;SDS011;60146;52.498;13.462;2024-03-23T10:01:00;5.47;;;1.07;;
72235;SDS011;60146;52.498;13.462;2024-03-23T10:03:26;4.20;;;1.23;;
72235;SDS011;60146;52.498;13.462;2024-03-23T10:06:01;3.77;;;1.20;;
72235;SDS011;60146;52.498;13.462;2024-03-23T10:08:28;6.57;;;1.50;;
72235;SDS011;60146;52.498;13.462;2024-03-23T10:10:54;4.63;;;1.20;;
72235;SDS011;60146;52.498;13.462;2024-03-23T10:13:26;4.77;;;0.93;;
72235;SDS011;60146;52.498;13.462;2024-03-23T10:15:59;3.80;;;1.00;;
72235;SDS011;60146;52.498;13.462;2024-03-23T10:18:25;5.80;;;1.33;;
72235;SDS011;60146;52.498;13.462;2024-03-23T10:23:30;6.63;;;1.30;;
72235;SDS011;60146;52.498;13.462;2024-03-23T10:26:11;6.27;;;1.03;;
72235;SDS011;60146;52.498;13.462;2024-03-23T10:28:49;6.87;;;1.20;;
72235;SDS011;60146;52.498;13.462;2024-03-23T10:31:36;4.97;;;1.47;;
72235;SDS011;60146;52.498;13.462;2024-03-23T10:34:02;6.03;;;1.10;;
72235;SDS011;60146;52.498;13.462;2024-03-23T10:36:28;5.23;;;1.13;;
72235;SDS011;60146;52.498;13.462;2024-03-23T10:38:55;5.57;;;1.17;;
72235;SDS011;60146;52.498;13.462;2024-03-23T10:41:23;5.17;;;1.10;;
72235;SDS011;60146;52.498;13.462;2024-03-23T10:43:52;3.80;;;1.20;;
72235;SDS011;60146;52.498;13.462;2024-03-23T10:46:18;3.40;;;1.07;;
72235;SDS011;60146;52.498;13.462;2024-03-23T10:48:45;8.07;;;1.40;;
72235;SDS011;60146;52.498;13.462;2024-03-23T10:51:10;3.97;;;1.43;;
72235;SDS011;60146;52.498;13.462;2024-03-23T10:53:36;9.33;;;1.67;;
72235;SDS011;60146;52.498;13.462;2024-03-23T10:56:04;7.27;;;1.20;;
72235;SDS011;60146;52.498;13.462;2024-03-23T11:01:11;7.30;;;1.60;;
72235;SDS011;60146;52.498;13.462;2024-03-23T11:03:38;3.43;;;1.17;;
72235;SDS011;60146;52.498;13.462;2024-03-23T11:06:04;4.20;;;1.23;;
72235;SDS011;60146;52.498;13.462;2024-03-23T11:08:37;5.90;;;1.10;;
72235;SDS011;60146;52.498;13.462;2024-03-23T11:11:22;5.50;;;1.20;;
72235;SDS011;60146;52.498;13.462;2024-03-23T11:13:53;6.40;;;1.53;;
72235;SDS011;60146;52.498;13.462;2024-03-23T11:16:23;6.47;;;1.30;;
72235;SDS011;60146;52.498;13.462;2024-03-23T11:18:49;6.25;;;1.50;;
72235;SDS011;60146;52.498;13.462;2024-03-23T11:24:19;7.00;;;1.40;;
72235;SDS011;60146;52.498;13.462;2024-03-23T11:26:48;7.00;;;1.70;;
72235;SDS011;60146;52.498;13.462;2024-03-23T11:29:14;4.83;;;1.20;;
72235;SDS011;60146;52.498;13.462;2024-03-23T11:31:50;5.50;;;1.43;;
72235;SDS011;60146;52.498;13.462;2024-03-23T11:34:17;5.77;;;1.23;;
72235;SDS011;60146;52.498;13.462;2024-03-23T11:36:43;3.30;;;1.33;;
72235;SDS011;60146;52.498;13.462;2024-03-23T11:39:15;7.23;;;1.30;;
72235;SDS011;60146;52.498;13.462;2024-03-23T11:41:55;4.33;;;1.50;;
72235;SDS011;60146;52.498;13.462;2024-03-23T11:44:22;4.77;;;1.50;;
72235;SDS011;60146;52.498;13.462;2024-03-23T11:46:51;5.30;;;1.63;;
72235;SDS011;60146;52.498;13.462;2024-03-23T11:49:23;5.47;;;1.37;;
72235;SDS011;60146;52.498;13.462;2024-03-23T11:51:53;4.57;;;1.60;;
72235;SDS011;60146;52.498;13.462;2024-03-23T11:54:25;4.97;;;1.40;;
72235;SDS011;60146;52.498;13.462;2024-03-23T11:56:56;4.67;;;1.97;;
72235;SDS011;60146;52.498;13.462;2024-03-23T11:59:42;5.03;;;1.77;;
72235;SDS011;60146;52.498;13.462;2024-03-23T12:02:12;4.90;;;1.43;;
72235;SDS011;60146;52.498;13.462;2024-03-23T12:04:40;6.47;;;1.40;;
72235;SDS011;60146;52.498;13.462;2024-03-23T12:07:24;4.33;;;1.30;;
72235;SDS011;60146;52.498;13.462;2024-03-23T12:10:02;3.37;;;1.30;;
72235;SDS011;60146;52.498;13.462;2024-03-23T12:12:29;4.78;;;1.38;;
72235;SDS011;60146;52.498;13.462;2024-03-23T12:15:04;5.23;;;1.10;;
72235;SDS011;60146;52.498;13.462;2024-03-23T12:17:31;5.03;;;1.27;;
72235;SDS011;60146;52.498;13.462;2024-03-23T12:19:57;7.37;;;1.47;;
72235;SDS011;60146;52.498;13.462;2024-03-23T12:22:22;4.33;;;1.23;;
72235;SDS011;60146;52.498;13.462;2024-03-23T12:24:48;8.60;;;1.43;;
72235;SDS011;60146;52.498;13.462;2024-03-23T12:27:14;4.70;;;1.17;;
72235;SDS011;60146;52.498;13.462;2024-03-23T12:29:40;7.80;;;1.43;;
72235;SDS011;60146;52.498;13.462;2024-03-23T12:32:08;7.40;;;1.43;;
72235;SDS011;60146;52.498;13.462;2024-03-23T12:34:33;8.10;;;1.47;;
72235;SDS011;60146;52.498;13.462;2024-03-23T12:36:58;8.77;;;1.30;;
72235;SDS011;60146;52.498;13.462;2024-03-23T12:39:24;7.60;;;1.37;;
72235;SDS011;60146;52.498;13.462;2024-03-23T12:41:49;7.03;;;1.30;;
72235;SDS011;60146;52.498;13.462;2024-03-23T12:44:15;5.57;;;1.53;;
72235;SDS011;60146;52.498;13.462;2024-03-23T12:46:44;9.20;;;1.60;;
72235;SDS011;60146;52.498;13.462;2024-03-23T12:49:09;3.53;;;1.20;;
72235;SDS011;60146;52.498;13.462;2024-03-23T12:51:35;7.67;;;1.57;;
72235;SDS011;60146;52.498;13.462;2024-03-23T12:54:00;8.27;;;1.27;;
72235;SDS011;60146;52.498;13.462;2024-03-23T12:56:26;4.30;;;1.20;;
72235;SDS011;60146;52.498;13.462;2024-03-23T12:58:53;4.37;;;1.00;;
72235;SDS011;60146;52.498;13.462;2024-03-23T13:01:20;4.23;;;1.20;;
72235;SDS011;60146;52.498;13.462;2024-03-23T13:03:46;7.80;;;1.43;;
72235;SDS011;60146;52.498;13.462;2024-03-23T13:06:12;4.07;;;1.03;;
72235;SDS011;60146;52.498;13.462;2024-03-23T13:08:37;6.37;;;1.00;;
72235;SDS011;60146;52.498;13.462;2024-03-23T13:11:03;1.50;;;0.77;;
72235;SDS011;60146;52.498;13.462;2024-03-23T13:13:28;3.53;;;0.93;;
72235;SDS011;60146;52.498;13.462;2024-03-23T13:15:56;2.43;;;0.80;;
72235;SDS011;60146;52.498;13.462;2024-03-23T13:18:22;2.57;;;0.77;;
72235;SDS011;60146;52.498;13.462;2024-03-23T13:20:47;2.03;;;0.90;;
72235;SDS011;60146;52.498;13.462;2024-03-23T13:23:12;2.93;;;1.40;;
72235;SDS011;60146;52.498;13.462;2024-03-23T13:25:38;2.67;;;1.10;;
72235;SDS011;60146;52.498;13.462;2024-03-23T13:28:03;4.47;;;1.10;;
72235;SDS011;60146;52.498;13.462;2024-03-23T13:30:30;5.07;;;1.10;;
72235;SDS011;60146;52.498;13.462;2024-03-23T13:32:55;4.23;;;1.00;;
72235;SDS011;60146;52.498;13.462;2024-03-23T13:35:21;4.67;;;0.87;;
72235;SDS011;60146;52.498;13.462;2024-03-23T13:37:47;3.73;;;1.20;;
72235;SDS011;60146;52.498;13.462;2024-03-23T13:40:13;3.87;;;1.03;;
72235;SDS011;60146;52.498;13.462;2024-03-23T13:42:38;5.97;;;1.27;;
72235;SDS011;60146;52.498;13.462;2024-03-23T13:45:03;3.88;;;1.00;;
72235;SDS011;60146;52.498;13.462;2024-03-23T13:47:29;5.80;;;1.20;;
72235;SDS011;60146;52.498;13.462;2024-03-23T13:49:54;2.92;;;1.20;;
72235;SDS011;60146;52.498;13.462;2024-03-23T13:52:20;6.22;;;1.50;;
72235;SDS011;60146;52.498;13.462;2024-03-23T13:54:48;3.95;;;1.50;;
72235;SDS011;60146;52.498;13.462;2024-03-23T13:57:13;5.20;;;1.40;;
72235;SDS011;60146;52.498;13.462;2024-03-23T13:59:39;4.35;;;1.52;;
72235;SDS011;60146;52.498;13.462;2024-03-23T14:02:04;7.57;;;1.50;;
72235;SDS011;60146;52.498;13.462;2024-03-23T14:04:29;4.05;;;1.10;;
72235;SDS011;60146;52.498;13.462;2024-03-23T14:06:55;7.35;;;1.50;;
72235;SDS011;60146;52.498;13.462;2024-03-23T14:09:20;4.82;;;1.30;;
72235;SDS011;60146;52.498;13.462;2024-03-23T14:11:47;7.50;;;1.52;;
72235;SDS011;60146;52.498;13.462;2024-03-23T14:14:13;5.70;;;1.40;;
72235;SDS011;60146;52.498;13.462;2024-03-23T14:16:43;8.18;;;1.40;;
72235;SDS011;60146;52.498;13.462;2024-03-23T14:19:08;6.90;;;1.50;;
72235;SDS011;60146;52.498;13.462;2024-03-23T14:21:34;6.13;;;1.40;;
72235;SDS011;60146;52.498;13.462;2024-03-23T14:24:01;7.47;;;1.50;;
72235;SDS011;60146;52.498;13.462;2024-03-23T14:26:27;6.40;;;1.43;;
72235;SDS011;60146;52.498;13.462;2024-03-23T14:28:53;9.60;;;1.87;;
72235;SDS011;60146;52.498;13.462;2024-03-23T14:31:18;7.47;;;1.70;;
72235;SDS011;60146;52.498;13.462;2024-03-23T14:33:44;11.80;;;1.93;;
72235;SDS011;60146;52.498;13.462;2024-03-23T14:36:15;10.23;;;1.80;;
72235;SDS011;60146;52.498;13.462;2024-03-23T14:41:07;4.70;;;1.93;;
72235;SDS011;60146;52.498;13.462;2024-03-23T14:43:33;7.30;;;1.50;;
72235;SDS011;60146;52.498;13.462;2024-03-23T14:46:14;6.77;;;1.90;;
72235;SDS011;60146;52.498;13.462;2024-03-23T14:48:41;8.37;;;2.00;;
72235;SDS011;60146;52.498;13.462;2024-03-23T14:51:10;6.60;;;1.70;;
72235;SDS011;60146;52.498;13.462;2024-03-23T14:53:36;8.43;;;2.03;;
72235;SDS011;60146;52.498;13.462;2024-03-23T14:56:05;3.33;;;1.40;;
72235;SDS011;60146;52.498;13.462;2024-03-23T14:58:31;4.17;;;1.20;;
72235;SDS011;60146;52.498;13.462;2024-03-23T15:01:15;3.27;;;1.43;;
72235;SDS011;60146;52.498;13.462;2024-03-23T15:03:40;9.30;;;2.40;;
72235;SDS011;60146;52.498;13.462;2024-03-23T15:06:07;7.23;;;1.90;;
72235;SDS011;60146;52.498;13.462;2024-03-23T15:08:34;3.00;;;1.60;;
72235;SDS011;60146;52.498;13.462;2024-03-23T15:11:00;8.37;;;2.40;;
72235;SDS011;60146;52.498;13.462;2024-03-23T15:15:55;8.27;;;2.10;;
72235;SDS011;60146;52.498;13.462;2024-03-23T15:18:20;5.77;;;1.90;;
72235;SDS011;60146;52.498;13.462;2024-03-23T15:20:56;11.27;;;2.37;;
72235;SDS011;60146;52.498;13.462;2024-03-23T15:23:22;9.02;;;2.28;;
72235;SDS011;60146;52.498;13.462;2024-03-23T15:25:55;6.27;;;1.90;;
72235;SDS011;60146;52.498;13.462;2024-03-23T15:28:21;5.43;;;1.80;;
72235;SDS011;60146;52.498;13.462;2024-03-23T15:30:48;6.13;;;1.83;;
72235;SDS011;60146;52.498;13.462;2024-03-23T15:33:13;4.47;;;1.63;;
72235;SDS011;60146;52.498;13.462;2024-03-23T15:35:38;5.07;;;1.43;;
72235;SDS011;60146;52.498;13.462;2024-03-23T15:38:04;3.47;;;1.43;;
72235;SDS011;60146;52.498;13.462;2024-03-23T15:40:29;4.03;;;1.43;;
72235;SDS011;60146;52.498;13.462;2024-03-23T15:42:54;4.00;;;1.50;;